BCS6WK LEVT-LEVC
Flight info
| Callsign | BCS6WK |
|---|---|
| Flight time | 0h 56m |
| Altitude | 29000 |
| Route | CEGAM L176 BAGAS P152 PPN M176 MANDY |
| Aircraft | B738/M-SDFGHIRWY/LB1 |
Departure
| Time | 2026-05-07 22:36 |
|---|---|
| Airport | Vitoria Airport (LEVT) |
Arrival
| Time | 2026-05-07 23:33 |
|---|---|
| Airport | Valencia Airport (LEVC) |
| Time | Latitude | Longitude | Altitude | Speed | Heading |
|---|---|---|---|---|---|
| 2026-05-07 22:12 | 42.88050 | -2.73409 | 1676 ft | 0 kts | 37° |
| 2026-05-07 22:26 | 42.88048 | -2.73411 | 1676 ft | 3 kts | 37° |
| 2026-05-07 22:26 | 42.88028 | -2.73434 | 1685 ft | 4 kts | 45° |
| 2026-05-07 22:26 | 42.88006 | -2.73472 | 1684 ft | 4 kts | 67° |
| 2026-05-07 22:27 | 42.88003 | -2.73504 | 1680 ft | 4 kts | 116° |
| 2026-05-07 22:27 | 42.88008 | -2.73516 | 1676 ft | 1 kts | 126° |
| 2026-05-07 22:30 | 42.87998 | -2.73497 | 1679 ft | 7 kts | 126° |
| 2026-05-07 22:31 | 42.87958 | -2.73421 | 1679 ft | 11 kts | 125° |
| 2026-05-07 22:31 | 42.87961 | -2.73327 | 1679 ft | 11 kts | 39° |
| 2026-05-07 22:31 | 42.87985 | -2.73244 | 1676 ft | 11 kts | 124° |
| 2026-05-07 22:31 | 42.87940 | -2.73161 | 1681 ft | 11 kts | 127° |
| 2026-05-07 22:32 | 42.87951 | -2.73075 | 1688 ft | 11 kts | 35° |
| 2026-05-07 22:32 | 42.88019 | -2.73010 | 1681 ft | 14 kts | 35° |
| 2026-05-07 22:32 | 42.88115 | -2.72917 | 1683 ft | 20 kts | 35° |
| 2026-05-07 22:32 | 42.88243 | -2.72792 | 1676 ft | 25 kts | 37° |
| 2026-05-07 22:33 | 42.88397 | -2.72639 | 1676 ft | 29 kts | 35° |
| 2026-05-07 22:33 | 42.88557 | -2.72480 | 1681 ft | 28 kts | 37° |
| 2026-05-07 22:33 | 42.88707 | -2.72332 | 1680 ft | 26 kts | 36° |
| 2026-05-07 22:33 | 42.88847 | -2.72196 | 1676 ft | 24 kts | 36° |
| 2026-05-07 22:34 | 42.88977 | -2.72068 | 1684 ft | 23 kts | 36° |
| 2026-05-07 22:34 | 42.89104 | -2.71945 | 1681 ft | 22 kts | 36° |
| 2026-05-07 22:34 | 42.89226 | -2.71824 | 1678 ft | 21 kts | 36° |
| 2026-05-07 22:34 | 42.89345 | -2.71707 | 1684 ft | 21 kts | 36° |
| 2026-05-07 22:35 | 42.89460 | -2.71594 | 1676 ft | 20 kts | 36° |
| 2026-05-07 22:35 | 42.89572 | -2.71484 | 1682 ft | 20 kts | 36° |
| 2026-05-07 22:35 | 42.89631 | -2.71346 | 1681 ft | 19 kts | 125° |
| 2026-05-07 22:35 | 42.89535 | -2.71235 | 1679 ft | 19 kts | 173° |
| 2026-05-07 22:36 | 42.89382 | -2.71368 | 1674 ft | 49 kts | 215° |
| 2026-05-07 22:36 | 42.88889 | -2.71850 | 1684 ft | 123 kts | 216° |
| 2026-05-07 22:36 | 42.88034 | -2.72686 | 1797 ft | 171 kts | 216° |
| 2026-05-07 22:36 | 42.87024 | -2.73675 | 2413 ft | 188 kts | 216° |
| 2026-05-07 22:37 | 42.85907 | -2.74770 | 3012 ft | 205 kts | 214° |
| 2026-05-07 22:37 | 42.84717 | -2.75926 | 3543 ft | 215 kts | 214° |
| 2026-05-07 22:37 | 42.83476 | -2.77137 | 4041 ft | 222 kts | 214° |
| 2026-05-07 22:37 | 42.82261 | -2.78328 | 4508 ft | 213 kts | 214° |
| 2026-05-07 22:38 | 42.81027 | -2.79537 | 5007 ft | 225 kts | 214° |
| 2026-05-07 22:38 | 42.79716 | -2.80816 | 5541 ft | 239 kts | 214° |
| 2026-05-07 22:38 | 42.78321 | -2.82170 | 6092 ft | 253 kts | 214° |
| 2026-05-07 22:38 | 42.76861 | -2.83579 | 6616 ft | 267 kts | 214° |
| 2026-05-07 22:39 | 42.75328 | -2.85050 | 7113 ft | 272 kts | 214° |
| 2026-05-07 22:39 | 42.73771 | -2.86532 | 7609 ft | 273 kts | 215° |
| 2026-05-07 22:39 | 42.72210 | -2.88002 | 8111 ft | 274 kts | 212° |
| 2026-05-07 22:39 | 42.70421 | -2.88821 | 8598 ft | 275 kts | 181° |
| 2026-05-07 22:40 | 42.68590 | -2.88180 | 9129 ft | 278 kts | 149° |
| 2026-05-07 22:40 | 42.67268 | -2.86253 | 9657 ft | 284 kts | 117° |
| 2026-05-07 22:40 | 42.66836 | -2.83620 | 10186 ft | 290 kts | 94° |
| 2026-05-07 22:40 | 42.66826 | -2.80850 | 10691 ft | 296 kts | 90° |
| 2026-05-07 22:41 | 42.66867 | -2.78038 | 11179 ft | 300 kts | 90° |
| 2026-05-07 22:41 | 42.66914 | -2.75195 | 11681 ft | 303 kts | 90° |
| 2026-05-07 22:41 | 42.66606 | -2.72384 | 12157 ft | 303 kts | 115° |
| 2026-05-07 22:41 | 42.65711 | -2.69800 | 12704 ft | 304 kts | 109° |
| 2026-05-07 22:42 | 42.65538 | -2.66948 | 13217 ft | 308 kts | 79° |
| 2026-05-07 22:42 | 42.66298 | -2.64244 | 13785 ft | 309 kts | 59° |
| 2026-05-07 22:42 | 42.67534 | -2.61849 | 14256 ft | 311 kts | 50° |
| 2026-05-07 22:42 | 42.69001 | -2.59675 | 14749 ft | 314 kts | 44° |
| 2026-05-07 22:43 | 42.70603 | -2.57629 | 15246 ft | 318 kts | 42° |
| 2026-05-07 22:43 | 42.72258 | -2.55622 | 15748 ft | 321 kts | 41° |
| 2026-05-07 22:43 | 42.73954 | -2.53579 | 16276 ft | 332 kts | 41° |
| 2026-05-07 22:43 | 42.75722 | -2.51448 | 16818 ft | 347 kts | 41° |
| 2026-05-07 22:44 | 42.77557 | -2.49224 | 17371 ft | 361 kts | 42° |
| 2026-05-07 22:44 | 42.79463 | -2.46910 | 17916 ft | 372 kts | 42° |
| 2026-05-07 22:44 | 42.81407 | -2.44545 | 18430 ft | 377 kts | 42° |
| 2026-05-07 22:44 | 42.83370 | -2.42155 | 18905 ft | 379 kts | 42° |
| 2026-05-07 22:45 | 42.85341 | -2.39750 | 19386 ft | 381 kts | 42° |
| 2026-05-07 22:45 | 42.87316 | -2.37340 | 19875 ft | 382 kts | 42° |
| 2026-05-07 22:45 | 42.89296 | -2.34920 | 20372 ft | 383 kts | 42° |
| 2026-05-07 22:45 | 42.91283 | -2.32491 | 20885 ft | 384 kts | 42° |
| 2026-05-07 22:46 | 42.93271 | -2.30055 | 21380 ft | 386 kts | 42° |
| 2026-05-07 22:46 | 42.95280 | -2.27594 | 21928 ft | 392 kts | 42° |
| 2026-05-07 22:46 | 42.97307 | -2.25054 | 22577 ft | 396 kts | 43° |
| 2026-05-07 22:46 | 42.99311 | -2.22487 | 23525 ft | 393 kts | 46° |
| 2026-05-07 22:47 | 43.00805 | -2.19392 | 24228 ft | 393 kts | 70° |
| 2026-05-07 22:47 | 43.01294 | -2.15747 | 24915 ft | 392 kts | 92° |
| 2026-05-07 22:47 | 43.00864 | -2.12088 | 25587 ft | 390 kts | 110° |
| 2026-05-07 22:47 | 42.99654 | -2.08797 | 26236 ft | 389 kts | 128° |
| 2026-05-07 22:48 | 42.97780 | -2.06179 | 26897 ft | 385 kts | 146° |
| 2026-05-07 22:48 | 42.95485 | -2.04470 | 27570 ft | 379 kts | 164° |
| 2026-05-07 22:48 | 42.92973 | -2.03428 | 28294 ft | 377 kts | 168° |
| 2026-05-07 22:48 | 42.90434 | -2.02501 | 28915 ft | 379 kts | 169° |
| 2026-05-07 22:49 | 42.87838 | -2.01594 | 28960 ft | 393 kts | 169° |
| 2026-05-07 22:49 | 42.85146 | -2.00657 | 28988 ft | 406 kts | 169° |
| 2026-05-07 22:49 | 42.82360 | -1.99675 | 28985 ft | 419 kts | 168° |
| 2026-05-07 22:49 | 42.79502 | -1.98652 | 28987 ft | 430 kts | 168° |
| 2026-05-07 22:50 | 42.76590 | -1.97596 | 28992 ft | 435 kts | 168° |
| 2026-05-07 22:50 | 42.70769 | -1.95457 | 28970 ft | 431 kts | 168° |
| 2026-05-07 22:51 | 42.64992 | -1.93330 | 28973 ft | 429 kts | 168° |
| 2026-05-07 22:51 | 42.59224 | -1.91214 | 28980 ft | 430 kts | 168° |
| 2026-05-07 22:52 | 42.53446 | -1.89101 | 28982 ft | 430 kts | 168° |
| 2026-05-07 22:52 | 42.47660 | -1.86989 | 28972 ft | 431 kts | 168° |
| 2026-05-07 22:53 | 42.41852 | -1.84873 | 28972 ft | 432 kts | 168° |
| 2026-05-07 22:53 | 42.36043 | -1.82761 | 28972 ft | 432 kts | 168° |
| 2026-05-07 22:54 | 42.30244 | -1.80657 | 28966 ft | 431 kts | 168° |
| 2026-05-07 22:54 | 42.24451 | -1.78558 | 28981 ft | 430 kts | 168° |
| 2026-05-07 22:55 | 42.18668 | -1.76467 | 28967 ft | 430 kts | 168° |
| 2026-05-07 22:55 | 42.12905 | -1.74388 | 28967 ft | 429 kts | 168° |
| 2026-05-07 22:56 | 42.07140 | -1.72311 | 28985 ft | 428 kts | 168° |
| 2026-05-07 22:56 | 42.01388 | -1.70244 | 28975 ft | 428 kts | 168° |
| 2026-05-07 22:57 | 41.95640 | -1.68181 | 28988 ft | 427 kts | 168° |
| 2026-05-07 22:57 | 41.89928 | -1.66135 | 28968 ft | 427 kts | 168° |
| 2026-05-07 22:58 | 41.84149 | -1.64070 | 28983 ft | 427 kts | 168° |
| 2026-05-07 22:58 | 41.78408 | -1.62021 | 28985 ft | 427 kts | 168° |
| 2026-05-07 22:59 | 41.72715 | -1.59993 | 28995 ft | 426 kts | 168° |
| 2026-05-07 22:59 | 41.66987 | -1.57957 | 28990 ft | 426 kts | 168° |
| 2026-05-07 23:00 | 41.61257 | -1.55924 | 28988 ft | 426 kts | 168° |
| 2026-05-07 23:00 | 41.55534 | -1.53897 | 28987 ft | 425 kts | 168° |
| 2026-05-07 23:01 | 41.49820 | -1.51877 | 28990 ft | 425 kts | 168° |
| 2026-05-07 23:01 | 41.44108 | -1.49902 | 28992 ft | 424 kts | 170° |
| 2026-05-07 23:02 | 41.38363 | -1.48148 | 28987 ft | 423 kts | 172° |
| 2026-05-07 23:02 | 41.32632 | -1.46438 | 29004 ft | 422 kts | 171° |
| 2026-05-07 23:03 | 41.26898 | -1.44708 | 29006 ft | 423 kts | 171° |
| 2026-05-07 23:03 | 41.21156 | -1.42961 | 29002 ft | 423 kts | 171° |
| 2026-05-07 23:04 | 41.15421 | -1.41213 | 29007 ft | 422 kts | 171° |
| 2026-05-07 23:04 | 41.09692 | -1.39469 | 29011 ft | 422 kts | 171° |
| 2026-05-07 23:05 | 41.03972 | -1.37732 | 29000 ft | 422 kts | 171° |
| 2026-05-07 23:05 | 40.98253 | -1.35998 | 29019 ft | 421 kts | 172° |
| 2026-05-07 23:06 | 40.92537 | -1.34268 | 29018 ft | 421 kts | 172° |
| 2026-05-07 23:06 | 40.86833 | -1.32546 | 29024 ft | 421 kts | 172° |
| 2026-05-07 23:07 | 40.81126 | -1.30825 | 29017 ft | 421 kts | 172° |
| 2026-05-07 23:07 | 40.78264 | -1.29964 | 28890 ft | 424 kts | 172° |
| 2026-05-07 23:07 | 40.75364 | -1.29094 | 28492 ft | 432 kts | 172° |
| 2026-05-07 23:07 | 40.72392 | -1.28206 | 27950 ft | 443 kts | 171° |
| 2026-05-07 23:08 | 40.69374 | -1.27302 | 27409 ft | 445 kts | 171° |
| 2026-05-07 23:08 | 40.66354 | -1.26394 | 26886 ft | 444 kts | 171° |
| 2026-05-07 23:08 | 40.63350 | -1.25490 | 26380 ft | 442 kts | 171° |
| 2026-05-07 23:08 | 40.60357 | -1.24590 | 25872 ft | 440 kts | 171° |
| 2026-05-07 23:09 | 40.57415 | -1.23707 | 25383 ft | 438 kts | 171° |
| 2026-05-07 23:09 | 40.54451 | -1.22820 | 24866 ft | 437 kts | 171° |
| 2026-05-07 23:09 | 40.51456 | -1.21925 | 24397 ft | 435 kts | 171° |
| 2026-05-07 23:09 | 40.48507 | -1.21046 | 23919 ft | 434 kts | 171° |
| 2026-05-07 23:10 | 40.45612 | -1.20183 | 23439 ft | 433 kts | 171° |
| 2026-05-07 23:10 | 40.42636 | -1.19297 | 22884 ft | 432 kts | 171° |
| 2026-05-07 23:10 | 40.39705 | -1.18425 | 22341 ft | 431 kts | 170° |
| 2026-05-07 23:10 | 40.36822 | -1.17568 | 21822 ft | 430 kts | 170° |
| 2026-05-07 23:11 | 40.33863 | -1.16689 | 21290 ft | 430 kts | 170° |
| 2026-05-07 23:11 | 40.30952 | -1.15825 | 20779 ft | 429 kts | 170° |
| 2026-05-07 23:11 | 40.28086 | -1.14976 | 20285 ft | 428 kts | 170° |
| 2026-05-07 23:11 | 40.25184 | -1.14116 | 19798 ft | 428 kts | 170° |
| 2026-05-07 23:12 | 40.22279 | -1.13256 | 19317 ft | 427 kts | 170° |
| 2026-05-07 23:12 | 40.19389 | -1.12401 | 18837 ft | 427 kts | 170° |
| 2026-05-07 23:12 | 40.16492 | -1.11545 | 18376 ft | 426 kts | 170° |
| 2026-05-07 23:12 | 40.13601 | -1.10691 | 17848 ft | 426 kts | 169° |
| 2026-05-07 23:13 | 40.10714 | -1.09839 | 17301 ft | 425 kts | 169° |
| 2026-05-07 23:13 | 40.07832 | -1.08990 | 16777 ft | 424 kts | 169° |
| 2026-05-07 23:13 | 40.04952 | -1.08141 | 16280 ft | 424 kts | 169° |
| 2026-05-07 23:13 | 40.02081 | -1.07297 | 15761 ft | 423 kts | 169° |
| 2026-05-07 23:14 | 39.99222 | -1.06456 | 15514 ft | 417 kts | 169° |
| 2026-05-07 23:14 | 39.97312 | -1.05894 | 15155 ft | 418 kts | 169° |
| 2026-05-07 23:14 | 39.94509 | -1.04896 | 14861 ft | 416 kts | 159° |
| 2026-05-07 23:14 | 39.92083 | -1.02898 | 14834 ft | 412 kts | 140° |
| 2026-05-07 23:15 | 39.90219 | -1.00116 | 14826 ft | 407 kts | 124° |
| 2026-05-07 23:15 | 39.89009 | -0.96801 | 14841 ft | 404 kts | 112° |
| 2026-05-07 23:15 | 39.88056 | -0.93430 | 14764 ft | 385 kts | 111° |
| 2026-05-07 23:15 | 39.87180 | -0.90205 | 14246 ft | 369 kts | 110° |
| 2026-05-07 23:16 | 39.86359 | -0.87167 | 13779 ft | 353 kts | 111° |
| 2026-05-07 23:16 | 39.85550 | -0.84210 | 13242 ft | 340 kts | 111° |
| 2026-05-07 23:16 | 39.84760 | -0.81359 | 12716 ft | 329 kts | 111° |
| 2026-05-07 23:16 | 39.83989 | -0.78603 | 12258 ft | 319 kts | 111° |
| 2026-05-07 23:17 | 39.83241 | -0.75952 | 11905 ft | 306 kts | 111° |
| 2026-05-07 23:17 | 39.82515 | -0.73386 | 11620 ft | 300 kts | 111° |
| 2026-05-07 23:17 | 39.81797 | -0.70856 | 11317 ft | 296 kts | 111° |
| 2026-05-07 23:17 | 39.81316 | -0.69165 | 11120 ft | 294 kts | 111° |
| 2026-05-07 23:18 | 39.80722 | -0.67076 | 10869 ft | 292 kts | 111° |
| 2026-05-07 23:18 | 39.80020 | -0.64614 | 10577 ft | 289 kts | 111° |
| 2026-05-07 23:18 | 39.79323 | -0.62173 | 10287 ft | 287 kts | 111° |
| 2026-05-07 23:19 | 39.78632 | -0.59752 | 9997 ft | 285 kts | 110° |
| 2026-05-07 23:19 | 39.77944 | -0.57346 | 9686 ft | 282 kts | 110° |
| 2026-05-07 23:19 | 39.77262 | -0.54962 | 9361 ft | 280 kts | 110° |
| 2026-05-07 23:19 | 39.76587 | -0.52603 | 9060 ft | 277 kts | 110° |
| 2026-05-07 23:20 | 39.75920 | -0.50275 | 8746 ft | 275 kts | 110° |
| 2026-05-07 23:20 | 39.75253 | -0.47947 | 8435 ft | 273 kts | 111° |
| 2026-05-07 23:20 | 39.74591 | -0.45641 | 8121 ft | 271 kts | 110° |
| 2026-05-07 23:20 | 39.73934 | -0.43356 | 7833 ft | 270 kts | 111° |
| 2026-05-07 23:21 | 39.73280 | -0.41081 | 7531 ft | 268 kts | 111° |
| 2026-05-07 23:21 | 39.72631 | -0.38824 | 7229 ft | 266 kts | 111° |
| 2026-05-07 23:21 | 39.71986 | -0.36584 | 6945 ft | 264 kts | 111° |
| 2026-05-07 23:21 | 39.71344 | -0.34358 | 6648 ft | 262 kts | 111° |
| 2026-05-07 23:22 | 39.70710 | -0.32158 | 6398 ft | 259 kts | 111° |
| 2026-05-07 23:22 | 39.70081 | -0.29981 | 6137 ft | 256 kts | 111° |
| 2026-05-07 23:22 | 39.69459 | -0.27828 | 5884 ft | 254 kts | 111° |
| 2026-05-07 23:22 | 39.68839 | -0.25686 | 5628 ft | 253 kts | 110° |
| 2026-05-07 23:23 | 39.68220 | -0.23556 | 5368 ft | 251 kts | 112° |
| 2026-05-07 23:23 | 39.67250 | -0.21699 | 5095 ft | 251 kts | 139° |
| 2026-05-07 23:23 | 39.65717 | -0.20657 | 4858 ft | 251 kts | 164° |
| 2026-05-07 23:23 | 39.63989 | -0.20337 | 4618 ft | 251 kts | 174° |
| 2026-05-07 23:24 | 39.62250 | -0.20169 | 4414 ft | 249 kts | 174° |
| 2026-05-07 23:24 | 39.60521 | -0.20018 | 4263 ft | 251 kts | 174° |
| 2026-05-07 23:24 | 39.58764 | -0.19859 | 4111 ft | 255 kts | 174° |
| 2026-05-07 23:24 | 39.56990 | -0.19694 | 3955 ft | 255 kts | 174° |
| 2026-05-07 23:25 | 39.55226 | -0.19524 | 3807 ft | 255 kts | 174° |
| 2026-05-07 23:25 | 39.53459 | -0.19351 | 3654 ft | 254 kts | 174° |
| 2026-05-07 23:25 | 39.51699 | -0.19176 | 3499 ft | 251 kts | 174° |
| 2026-05-07 23:25 | 39.49980 | -0.19004 | 3334 ft | 244 kts | 174° |
| 2026-05-07 23:26 | 39.48307 | -0.18835 | 3179 ft | 238 kts | 174° |
| 2026-05-07 23:26 | 39.46679 | -0.18671 | 3022 ft | 232 kts | 174° |
| 2026-05-07 23:26 | 39.45087 | -0.18509 | 2864 ft | 227 kts | 174° |
| 2026-05-07 23:26 | 39.43528 | -0.18548 | 2679 ft | 224 kts | 195° |
| 2026-05-07 23:27 | 39.40729 | -0.20064 | 2381 ft | 214 kts | 211° |
| 2026-05-07 23:27 | 39.39831 | -0.21519 | 2234 ft | 208 kts | 256° |
| 2026-05-07 23:27 | 39.39939 | -0.23280 | 2222 ft | 191 kts | 290° |
| 2026-05-07 23:28 | 39.40353 | -0.24848 | 2201 ft | 177 kts | 289° |
| 2026-05-07 23:28 | 39.40756 | -0.26314 | 2215 ft | 172 kts | 292° |
| 2026-05-07 23:28 | 39.41225 | -0.27721 | 2216 ft | 168 kts | 295° |
| 2026-05-07 23:28 | 39.41723 | -0.29092 | 2206 ft | 169 kts | 296° |
| 2026-05-07 23:29 | 39.42234 | -0.30458 | 2202 ft | 168 kts | 297° |
| 2026-05-07 23:29 | 39.42738 | -0.31798 | 2200 ft | 168 kts | 297° |
| 2026-05-07 23:29 | 39.43237 | -0.33119 | 2202 ft | 168 kts | 297° |
| 2026-05-07 23:29 | 39.43738 | -0.34446 | 2186 ft | 158 kts | 297° |
| 2026-05-07 23:30 | 39.44212 | -0.35699 | 2145 ft | 157 kts | 297° |
| 2026-05-07 23:30 | 39.44680 | -0.36939 | 1919 ft | 149 kts | 297° |
| 2026-05-07 23:30 | 39.45118 | -0.38097 | 1773 ft | 140 kts | 297° |
| 2026-05-07 23:30 | 39.45548 | -0.39232 | 1559 ft | 139 kts | 297° |
| 2026-05-07 23:31 | 39.45970 | -0.40349 | 1371 ft | 138 kts | 297° |
| 2026-05-07 23:31 | 39.46371 | -0.41409 | 1187 ft | 138 kts | 297° |
| 2026-05-07 23:31 | 39.46797 | -0.42511 | 1038 ft | 135 kts | 298° |
| 2026-05-07 23:31 | 39.47217 | -0.43620 | 841 ft | 136 kts | 295° |
| 2026-05-07 23:32 | 39.47621 | -0.44733 | 645 ft | 139 kts | 295° |
| 2026-05-07 23:32 | 39.48035 | -0.45837 | 414 ft | 135 kts | 297° |
| 2026-05-07 23:32 | 39.48456 | -0.46914 | 248 ft | 134 kts | 296° |
| 2026-05-07 23:32 | 39.48829 | -0.47887 | 213 ft | 97 kts | 296° |
| 2026-05-07 23:33 | 39.49030 | -0.48421 | 214 ft | 24 kts | 296° |
| 2026-05-07 23:33 | 39.49148 | -0.48514 | 208 ft | 21 kts | 359° |
| 2026-05-07 23:33 | 39.49195 | -0.48497 | 214 ft | 4 kts | 27° |
| 2026-05-07 23:33 | 39.49214 | -0.48475 | 210 ft | 4 kts | 64° |
| 2026-05-07 23:34 | 39.49226 | -0.48439 | 208 ft | 5 kts | 66° |
| 2026-05-07 23:34 | 39.49231 | -0.48395 | 208 ft | 5 kts | 92° |
| 2026-05-07 23:34 | 39.49251 | -0.48359 | 208 ft | 5 kts | 37° |
| 2026-05-07 23:34 | 39.49285 | -0.48356 | 208 ft | 6 kts | 320° |
| 2026-05-07 23:35 | 39.49303 | -0.48375 | 210 ft | 0 kts | 325° |
| 2026-05-07 23:35 | 39.49308 | -0.48379 | 209 ft | 2 kts | 328° |
| 2026-05-07 23:35 | 39.49339 | -0.48377 | 214 ft | 8 kts | 14° |
| 2026-05-07 23:35 | 39.49374 | -0.48364 | 208 ft | 0 kts | 17° |